sensor_id;sensor_type;location;lat;lon;timestamp;P1;durP1;ratioP1;P2;durP2;ratioP2
49147;SDS011;41980;45.550;12.070;2023-02-04T00:03:14;90.43;;;51.95;;
49147;SDS011;41980;45.550;12.070;2023-02-04T00:09:16;200.13;;;88.55;;
49147;SDS011;41980;45.550;12.070;2023-02-04T00:15:18;60.75;;;38.33;;
49147;SDS011;41980;45.550;12.070;2023-02-04T00:21:20;78.65;;;36.58;;
49147;SDS011;41980;45.550;12.070;2023-02-04T00:33:24;73.80;;;36.70;;
49147;SDS011;41980;45.550;12.070;2023-02-04T00:45:27;63.38;;;36.38;;
49147;SDS011;41980;45.550;12.070;2023-02-04T00:51:29;95.82;;;47.58;;
49147;SDS011;41980;45.550;12.070;2023-02-04T00:57:33;72.18;;;43.03;;
49147;SDS011;41980;45.550;12.070;2023-02-04T01:03:35;65.72;;;43.33;;
49147;SDS011;41980;45.550;12.070;2023-02-04T01:09:36;154.82;;;51.30;;
49147;SDS011;41980;45.550;12.070;2023-02-04T01:15:38;295.65;;;74.78;;
49147;SDS011;41980;45.550;12.070;2023-02-04T01:21:40;178.25;;;68.05;;
49147;SDS011;41980;45.550;12.070;2023-02-04T01:27:45;79.18;;;41.00;;
49147;SDS011;41980;45.550;12.070;2023-02-04T01:39:48;75.07;;;29.65;;
49147;SDS011;41980;45.550;12.070;2023-02-04T01:51:52;99.28;;;39.28;;
49147;SDS011;41980;45.550;12.070;2023-02-04T01:57:54;57.83;;;25.25;;
49147;SDS011;41980;45.550;12.070;2023-02-04T02:03:59;59.00;;;33.67;;
49147;SDS011;41980;45.550;12.070;2023-02-04T02:10:02;113.55;;;35.38;;
49147;SDS011;41980;45.550;12.070;2023-02-04T02:16:06;82.47;;;32.22;;
49147;SDS011;41980;45.550;12.070;2023-02-04T02:22:10;130.80;;;41.50;;
49147;SDS011;41980;45.550;12.070;2023-02-04T02:28:18;69.20;;;33.28;;
49147;SDS011;41980;45.550;12.070;2023-02-04T02:34:22;106.22;;;33.50;;
49147;SDS011;41980;45.550;12.070;2023-02-04T02:40:26;38.88;;;21.40;;
49147;SDS011;41980;45.550;12.070;2023-02-04T02:46:28;80.97;;;36.50;;
49147;SDS011;41980;45.550;12.070;2023-02-04T02:52:29;122.72;;;39.42;;
49147;SDS011;41980;45.550;12.070;2023-02-04T02:58:32;51.25;;;28.88;;
49147;SDS011;41980;45.550;12.070;2023-02-04T03:04:37;62.28;;;30.30;;
49147;SDS011;41980;45.550;12.070;2023-02-04T03:10:44;84.15;;;35.63;;
49147;SDS011;41980;45.550;12.070;2023-02-04T03:16:47;56.47;;;26.58;;
49147;SDS011;41980;45.550;12.070;2023-02-04T03:22:50;67.70;;;34.50;;
49147;SDS011;41980;45.550;12.070;2023-02-04T03:28:53;126.20;;;44.90;;
49147;SDS011;41980;45.550;12.070;2023-02-04T03:34:55;53.30;;;26.48;;
49147;SDS011;41980;45.550;12.070;2023-02-04T03:40:57;67.78;;;25.58;;
49147;SDS011;41980;45.550;12.070;2023-02-04T03:46:58;83.07;;;30.80;;
49147;SDS011;41980;45.550;12.070;2023-02-04T03:53:00;107.10;;;36.30;;
49147;SDS011;41980;45.550;12.070;2023-02-04T04:05:04;65.70;;;26.58;;
49147;SDS011;41980;45.550;12.070;2023-02-04T04:11:07;61.90;;;31.88;;
49147;SDS011;41980;45.550;12.070;2023-02-04T04:17:08;130.50;;;39.30;;
49147;SDS011;41980;45.550;12.070;2023-02-04T04:23:10;118.90;;;44.22;;
49147;SDS011;41980;45.550;12.070;2023-02-04T04:29:12;128.75;;;44.38;;
49147;SDS011;41980;45.550;12.070;2023-02-04T04:35:14;101.13;;;43.53;;
49147;SDS011;41980;45.550;12.070;2023-02-04T04:41:16;126.57;;;46.88;;
49147;SDS011;41980;45.550;12.070;2023-02-04T04:47:18;60.08;;;30.67;;
49147;SDS011;41980;45.550;12.070;2023-02-04T04:53:20;84.15;;;34.88;;
49147;SDS011;41980;45.550;12.070;2023-02-04T04:59:21;77.88;;;36.75;;
49147;SDS011;41980;45.550;12.070;2023-02-04T05:05:23;72.70;;;42.53;;
49147;SDS011;41980;45.550;12.070;2023-02-04T05:11:25;92.15;;;45.92;;
49147;SDS011;41980;45.550;12.070;2023-02-04T05:17:27;124.90;;;47.92;;
49147;SDS011;41980;45.550;12.070;2023-02-04T05:23:29;196.18;;;54.42;;
49147;SDS011;41980;45.550;12.070;2023-02-04T05:29:31;304.70;;;69.05;;
49147;SDS011;41980;45.550;12.070;2023-02-04T05:35:33;72.60;;;41.33;;
49147;SDS011;41980;45.550;12.070;2023-02-04T05:47:37;119.40;;;45.00;;
49147;SDS011;41980;45.550;12.070;2023-02-04T05:59:40;101.85;;;39.35;;
49147;SDS011;41980;45.550;12.070;2023-02-04T06:05:42;74.43;;;35.55;;
49147;SDS011;41980;45.550;12.070;2023-02-04T06:17:46;92.30;;;37.65;;
49147;SDS011;41980;45.550;12.070;2023-02-04T06:23:47;69.70;;;30.77;;
49147;SDS011;41980;45.550;12.070;2023-02-04T06:29:50;49.60;;;23.70;;
49147;SDS011;41980;45.550;12.070;2023-02-04T06:35:53;81.10;;;41.15;;
49147;SDS011;41980;45.550;12.070;2023-02-04T06:41:55;106.25;;;41.20;;
49147;SDS011;41980;45.550;12.070;2023-02-04T06:53:59;56.30;;;33.40;;
49147;SDS011;41980;45.550;12.070;2023-02-04T07:00:02;70.55;;;40.08;;
49147;SDS011;41980;45.550;12.070;2023-02-04T07:06:04;52.92;;;31.92;;
49147;SDS011;41980;45.550;12.070;2023-02-04T07:18:08;61.95;;;34.30;;
49147;SDS011;41980;45.550;12.070;2023-02-04T07:30:12;57.50;;;33.63;;
49147;SDS011;41980;45.550;12.070;2023-02-04T07:36:14;77.05;;;46.03;;
49147;SDS011;41980;45.550;12.070;2023-02-04T07:42:16;59.40;;;36.60;;
49147;SDS011;41980;45.550;12.070;2023-02-04T07:48:26;45.22;;;27.65;;
49147;SDS011;41980;45.550;12.070;2023-02-04T07:54:28;37.58;;;23.55;;
49147;SDS011;41980;45.550;12.070;2023-02-04T08:00:30;67.78;;;40.58;;
49147;SDS011;41980;45.550;12.070;2023-02-04T08:12:34;44.53;;;27.15;;
49147;SDS011;41980;45.550;12.070;2023-02-04T08:24:38;53.70;;;32.63;;
49147;SDS011;41980;45.550;12.070;2023-02-04T08:36:41;54.95;;;34.90;;
49147;SDS011;41980;45.550;12.070;2023-02-04T08:42:45;54.83;;;34.65;;
49147;SDS011;41980;45.550;12.070;2023-02-04T08:54:49;49.03;;;28.90;;
49147;SDS011;41980;45.550;12.070;2023-02-04T09:00:51;57.78;;;35.80;;
49147;SDS011;41980;45.550;12.070;2023-02-04T09:12:55;91.60;;;55.50;;
49147;SDS011;41980;45.550;12.070;2023-02-04T09:18:57;48.00;;;27.42;;
49147;SDS011;41980;45.550;12.070;2023-02-04T09:24:59;47.78;;;29.30;;
49147;SDS011;41980;45.550;12.070;2023-02-04T09:37:03;42.50;;;27.70;;
49147;SDS011;41980;45.550;12.070;2023-02-04T09:49:07;44.75;;;28.05;;
49147;SDS011;41980;45.550;12.070;2023-02-04T09:55:12;125.85;;;74.03;;
49147;SDS011;41980;45.550;12.070;2023-02-04T10:01:17;146.20;;;84.63;;
49147;SDS011;41980;45.550;12.070;2023-02-04T10:07:20;63.03;;;38.33;;
49147;SDS011;41980;45.550;12.070;2023-02-04T10:13:29;64.22;;;39.38;;
49147;SDS011;41980;45.550;12.070;2023-02-04T10:19:35;76.55;;;47.10;;
49147;SDS011;41980;45.550;12.070;2023-02-04T10:31:40;66.22;;;40.17;;
49147;SDS011;41980;45.550;12.070;2023-02-04T10:37:45;113.60;;;64.82;;
49147;SDS011;41980;45.550;12.070;2023-02-04T10:43:53;81.38;;;48.05;;
49147;SDS011;41980;45.550;12.070;2023-02-04T10:56:15;102.15;;;61.22;;
49147;SDS011;41980;45.550;12.070;2023-02-04T11:02:26;96.13;;;60.38;;
49147;SDS011;41980;45.550;12.070;2023-02-04T11:08:36;86.25;;;54.22;;
49147;SDS011;41980;45.550;12.070;2023-02-04T11:14:39;86.68;;;54.03;;
49147;SDS011;41980;45.550;12.070;2023-02-04T11:26:43;98.88;;;64.13;;
49147;SDS011;41980;45.550;12.070;2023-02-04T11:38:57;120.57;;;76.68;;
49147;SDS011;41980;45.550;12.070;2023-02-04T11:45:15;76.20;;;46.90;;
49147;SDS011;41980;45.550;12.070;2023-02-04T11:51:23;105.28;;;66.13;;
49147;SDS011;41980;45.550;12.070;2023-02-04T11:57:36;86.13;;;54.53;;
49147;SDS011;41980;45.550;12.070;2023-02-04T12:03:45;118.53;;;75.25;;
49147;SDS011;41980;45.550;12.070;2023-02-04T12:09:49;92.75;;;58.47;;
49147;SDS011;41980;45.550;12.070;2023-02-04T12:21:55;112.57;;;72.65;;
49147;SDS011;41980;45.550;12.070;2023-02-04T12:33:59;87.27;;;58.20;;
49147;SDS011;41980;45.550;12.070;2023-02-04T12:40:01;94.38;;;63.55;;
49147;SDS011;41980;45.550;12.070;2023-02-04T12:46:04;105.40;;;67.90;;
49147;SDS011;41980;45.550;12.070;2023-02-04T12:52:06;118.97;;;74.63;;
49147;SDS011;41980;45.550;12.070;2023-02-04T13:04:10;95.90;;;61.67;;
49147;SDS011;41980;45.550;12.070;2023-02-04T13:16:14;108.43;;;67.87;;
49147;SDS011;41980;45.550;12.070;2023-02-04T13:22:18;136.15;;;85.72;;
49147;SDS011;41980;45.550;12.070;2023-02-04T13:34:22;145.52;;;84.28;;
49147;SDS011;41980;45.550;12.070;2023-02-04T13:40:24;99.93;;;60.85;;
49147;SDS011;41980;45.550;12.070;2023-02-04T13:52:27;69.13;;;40.38;;
49147;SDS011;41980;45.550;12.070;2023-02-04T13:58:29;81.18;;;49.00;;
49147;SDS011;41980;45.550;12.070;2023-02-04T14:04:31;76.00;;;44.10;;
49147;SDS011;41980;45.550;12.070;2023-02-04T14:16:35;69.63;;;42.13;;
49147;SDS011;41980;45.550;12.070;2023-02-04T14:22:38;93.35;;;57.65;;
49147;SDS011;41980;45.550;12.070;2023-02-04T14:28:40;95.38;;;58.55;;
49147;SDS011;41980;45.550;12.070;2023-02-04T14:40:44;112.47;;;67.30;;
49147;SDS011;41980;45.550;12.070;2023-02-04T14:46:47;131.40;;;75.97;;
49147;SDS011;41980;45.550;12.070;2023-02-04T14:52:49;139.93;;;84.85;;
49147;SDS011;41980;45.550;12.070;2023-02-04T15:04:53;83.00;;;49.95;;
49147;SDS011;41980;45.550;12.070;2023-02-04T15:10:55;93.10;;;57.90;;
49147;SDS011;41980;45.550;12.070;2023-02-04T15:16:58;103.88;;;60.70;;
49147;SDS011;41980;45.550;12.070;2023-02-04T15:23:00;80.68;;;49.65;;
49147;SDS011;41980;45.550;12.070;2023-02-04T15:29:03;66.80;;;40.42;;
49147;SDS011;41980;45.550;12.070;2023-02-04T15:35:05;52.38;;;31.70;;
49147;SDS011;41980;45.550;12.070;2023-02-04T15:41:08;45.05;;;28.13;;
49147;SDS011;41980;45.550;12.070;2023-02-04T15:47:10;48.83;;;27.83;;
49147;SDS011;41980;45.550;12.070;2023-02-04T15:59:14;35.35;;;21.38;;
49147;SDS011;41980;45.550;12.070;2023-02-04T16:11:20;51.05;;;32.60;;
49147;SDS011;41980;45.550;12.070;2023-02-04T16:23:23;95.30;;;57.22;;
49147;SDS011;41980;45.550;12.070;2023-02-04T16:29:26;86.03;;;48.92;;
49147;SDS011;41980;45.550;12.070;2023-02-04T16:41:32;61.53;;;36.97;;
49147;SDS011;41980;45.550;12.070;2023-02-04T16:53:36;98.60;;;54.35;;
49147;SDS011;41980;45.550;12.070;2023-02-04T17:05:41;62.97;;;38.90;;
49147;SDS011;41980;45.550;12.070;2023-02-04T17:11:43;68.68;;;40.17;;
49147;SDS011;41980;45.550;12.070;2023-02-04T17:17:46;63.50;;;37.08;;
49147;SDS011;41980;45.550;12.070;2023-02-04T17:29:49;44.92;;;26.38;;
49147;SDS011;41980;45.550;12.070;2023-02-04T17:41:53;62.55;;;35.78;;
49147;SDS011;41980;45.550;12.070;2023-02-04T17:53:57;58.22;;;36.03;;
49147;SDS011;41980;45.550;12.070;2023-02-04T18:00:00;55.20;;;30.70;;
49147;SDS011;41980;45.550;12.070;2023-02-04T18:12:21;108.78;;;63.40;;
49147;SDS011;41980;45.550;12.070;2023-02-04T18:24:32;77.43;;;44.75;;
49147;SDS011;41980;45.550;12.070;2023-02-04T18:30:36;73.82;;;43.33;;
49147;SDS011;41980;45.550;12.070;2023-02-04T18:36:42;60.83;;;35.17;;
49147;SDS011;41980;45.550;12.070;2023-02-04T18:42:45;61.47;;;35.80;;
49147;SDS011;41980;45.550;12.070;2023-02-04T18:55:00;66.10;;;40.95;;
49147;SDS011;41980;45.550;12.070;2023-02-04T19:07:16;58.22;;;35.50;;
49147;SDS011;41980;45.550;12.070;2023-02-04T19:25:31;40.92;;;24.38;;
49147;SDS011;41980;45.550;12.070;2023-02-04T19:31:36;58.90;;;36.65;;
49147;SDS011;41980;45.550;12.070;2023-02-04T19:37:38;64.65;;;40.22;;
49147;SDS011;41980;45.550;12.070;2023-02-04T19:43:41;56.80;;;32.75;;
49147;SDS011;41980;45.550;12.070;2023-02-04T20:14:26;48.90;;;31.67;;
49147;SDS011;41980;45.550;12.070;2023-02-04T20:20:32;64.43;;;38.25;;
49147;SDS011;41980;45.550;12.070;2023-02-04T20:26:40;54.35;;;31.50;;
49147;SDS011;41980;45.550;12.070;2023-02-04T20:32:44;70.50;;;43.53;;
49147;SDS011;41980;45.550;12.070;2023-02-04T20:38:49;69.65;;;42.45;;
49147;SDS011;41980;45.550;12.070;2023-02-04T20:44:54;65.47;;;41.72;;
49147;SDS011;41980;45.550;12.070;2023-02-04T20:51:04;48.45;;;29.17;;
49147;SDS011;41980;45.550;12.070;2023-02-04T20:57:19;52.90;;;33.45;;
49147;SDS011;41980;45.550;12.070;2023-02-04T21:03:24;64.35;;;39.58;;
49147;SDS011;41980;45.550;12.070;2023-02-04T21:09:29;73.65;;;47.20;;
49147;SDS011;41980;45.550;12.070;2023-02-04T21:15:34;48.33;;;31.20;;
49147;SDS011;41980;45.550;12.070;2023-02-04T21:21:36;47.10;;;30.25;;
49147;SDS011;41980;45.550;12.070;2023-02-04T21:33:40;40.53;;;25.83;;
49147;SDS011;41980;45.550;12.070;2023-02-04T21:39:42;57.03;;;36.17;;
49147;SDS011;41980;45.550;12.070;2023-02-04T21:45:43;40.75;;;25.38;;
49147;SDS011;41980;45.550;12.070;2023-02-04T21:57:50;44.67;;;27.48;;
49147;SDS011;41980;45.550;12.070;2023-02-04T22:03:55;42.15;;;26.15;;
49147;SDS011;41980;45.550;12.070;2023-02-04T22:09:58;39.25;;;24.10;;
49147;SDS011;41980;45.550;12.070;2023-02-04T22:16:02;39.75;;;25.35;;
49147;SDS011;41980;45.550;12.070;2023-02-04T22:22:03;32.22;;;19.77;;
49147;SDS011;41980;45.550;12.070;2023-02-04T22:28:05;46.08;;;28.83;;
49147;SDS011;41980;45.550;12.070;2023-02-04T22:34:07;38.22;;;24.95;;
49147;SDS011;41980;45.550;12.070;2023-02-04T22:40:10;39.17;;;25.63;;
49147;SDS011;41980;45.550;12.070;2023-02-04T22:46:12;36.78;;;20.48;;
49147;SDS011;41980;45.550;12.070;2023-02-04T22:52:14;32.03;;;21.40;;
49147;SDS011;41980;45.550;12.070;2023-02-04T22:58:18;31.45;;;19.85;;
49147;SDS011;41980;45.550;12.070;2023-02-04T23:04:20;31.80;;;19.38;;
49147;SDS011;41980;45.550;12.070;2023-02-04T23:10:22;24.55;;;16.13;;
49147;SDS011;41980;45.550;12.070;2023-02-04T23:22:26;34.88;;;21.67;;
49147;SDS011;41980;45.550;12.070;2023-02-04T23:34:31;27.10;;;17.17;;
49147;SDS011;41980;45.550;12.070;2023-02-04T23:46:35;21.73;;;14.75;;
49147;SDS011;41980;45.550;12.070;2023-02-04T23:52:38;24.40;;;16.60;;
49147;SDS011;41980;45.550;12.070;2023-02-04T23:58:40;27.42;;;15.90;;
